Time;durP1;ratioP1;P1;durP2;ratioP2;P2;SDS_P1;SDS_P2;PMS_P1;PMS_P2;Temp;Humidity;BMP_temperature;BMP_pressure;BME280_temperature;BME280_humidity;BME280_pressure;Samples;Min_cycle;Max_cycle;Signal;HPM_P1;HPM_P2
2022/08/10 00:01:07;;;;;;;;;;;;;;;18.68;30.37;96482.56;5012216;28;19969;-65
2022/08/10 00:03:32;;;;;;;;;;;;;;;18.64;29.98;96481.31;5019520;28;19993;-65
2022/08/10 00:05:57;;;;;;;;;;;;;;;18.50;30.73;96485.88;5010839;28;20438;-65
2022/08/10 00:08:24;;;;;;;;;;;;;;;18.64;30.15;96483.19;5019242;28;20453;-65
2022/08/10 00:10:49;;;;;;;;;;;;;;;18.52;30.33;96481.06;5006263;28;20478;-65
2022/08/10 00:13:15;;;;;;;;;;;;;;;18.52;30.41;96480.22;4987148;28;20002;-65
2022/08/10 00:15:40;;;;;;;;;;;;;;;18.52;30.42;96472.16;4986996;28;20056;-65
2022/08/10 00:18:05;;;;;;;;;;;;;;;18.39;31.02;96471.13;5005685;28;19985;-65
2022/08/10 00:20:31;;;;;;;;;;;;;;;18.36;30.52;96468.03;5006059;28;19997;-65
2022/08/10 00:22:56;;;;;;;;;;;;;;;18.34;30.57;96468.22;5011037;28;20275;-65
2022/08/10 00:25:21;;;;;;;;;;;;;;;18.29;30.52;96468.84;5006407;28;20030;-65
2022/08/10 00:27:46;;;;;;;;;;;;;;;18.31;30.64;96461.38;5006959;28;19970;-65
2022/08/10 00:30:12;;;;;;;;;;;;;;;18.08;31.20;96474.44;5007286;28;20489;-65
2022/08/10 00:32:37;;;;;;;;;;;;;;;18.31;30.56;96465.94;5006497;28;19970;-65
2022/08/10 00:35:02;;;;;;;;;;;;;;;18.30;30.53;96467.81;5004432;28;19994;-65
2022/08/10 00:37:27;;;;;;;;;;;;;;;18.29;30.79;96471.53;5014929;28;20447;-65
2022/08/10 00:39:53;;;;;;;;;;;;;;;18.20;30.50;96467.41;5015732;28;19961;-64
2022/08/10 00:42:18;;;;;;;;;;;;;;;18.22;30.63;96465.31;5004707;28;20310;-65
2022/08/10 00:44:44;;;;;;;;;;;;;;;18.23;30.65;96466.16;5021700;28;19996;-65
2022/08/10 00:47:10;;;;;;;;;;;;;;;18.15;30.74;96459.13;5013593;28;20347;-65
2022/08/10 00:49:35;;;;;;;;;;;;;;;18.21;30.58;96460.97;5007441;28;20055;-65
2022/08/10 00:52:00;;;;;;;;;;;;;;;18.07;30.83;96462.81;5008448;28;20004;-65
2022/08/10 00:54:25;;;;;;;;;;;;;;;18.05;30.89;96471.09;5005371;28;22538;-65
2022/08/10 00:56:51;;;;;;;;;;;;;;;17.88;31.45;96464.47;4988395;28;20100;-65
2022/08/10 00:59:16;;;;;;;;;;;;;;;17.90;31.12;96473.16;5006741;28;19998;-65
2022/08/10 01:01:41;;;;;;;;;;;;;;;17.45;32.34;96466.38;4993549;28;20043;-65
2022/08/10 01:04:07;;;;;;;;;;;;;;;17.68;31.91;96467.91;5012114;28;19978;-65
2022/08/10 01:06:52;;;;;;;;;;;;;;;17.67;31.87;96458.16;5005424;28;19993;-65
2022/08/10 01:09:29;;;;;;;;;;;;;;;17.68;31.56;96462.53;5004680;28;19974;-65
2022/08/10 01:11:56;;;;;;;;;;;;;;;17.79;31.10;96456.50;5008520;28;19985;-65
2022/08/10 01:14:29;;;;;;;;;;;;;;;17.53;31.85;96452.75;4991623;28;19993;-65
2022/08/10 01:16:56;;;;;;;;;;;;;;;17.40;32.10;96445.44;5005843;28;19970;-65
2022/08/10 01:19:40;;;;;;;;;;;;;;;17.41;32.05;96448.97;4987399;28;20360;-65
2022/08/10 01:22:27;;;;;;;;;;;;;;;17.74;31.05;96450.91;5007090;28;20088;-65
2022/08/10 01:24:53;;;;;;;;;;;;;;;17.75;31.33;96449.88;4992156;28;19969;-65
2022/08/10 01:27:25;;;;;;;;;;;;;;;17.57;31.84;96453.16;5011506;28;20507;-65
2022/08/10 01:30:04;;;;;;;;;;;;;;;17.49;31.90;96450.66;4997923;28;19982;-64
2022/08/10 01:32:35;;;;;;;;;;;;;;;17.50;31.63;96455.00;5002117;28;20272;-65
2022/08/10 01:35:19;;;;;;;;;;;;;;;17.67;31.18;96450.06;5009333;28;20068;-65
2022/08/10 01:37:50;;;;;;;;;;;;;;;17.69;31.06;96448.03;5005071;28;20151;-65
2022/08/10 01:40:16;;;;;;;;;;;;;;;17.69;31.46;96445.31;5007524;28;19974;-65
2022/08/10 01:42:42;;;;;;;;;;;;;;;17.49;31.45;96448.78;5007004;28;20136;-65
2022/08/10 01:45:07;;;;;;;;;;;;;;;17.49;31.45;96440.72;5007157;28;20381;-65
2022/08/10 01:50:37;;;;;;;;;;;;;;;17.52;31.22;96442.16;5014361;28;20451;-65
2022/08/10 01:53:04;;;;;;;;;;;;;;;17.47;31.47;96436.56;4999643;28;19978;-62
2022/08/10 01:55:29;;;;;;;;;;;;;;;17.52;31.07;96445.72;5006748;28;20088;-65
2022/08/10 01:57:54;;;;;;;;;;;;;;;17.56;31.15;96451.50;4993988;28;20441;-64
2022/08/10 02:00:20;;;;;;;;;;;;;;;17.58;31.36;96445.91;5020456;28;19970;-65
2022/08/10 02:02:45;;;;;;;;;;;;;;;17.59;31.38;96451.09;4994635;28;20001;-64
2022/08/10 02:05:10;;;;;;;;;;;;;;;17.46;31.40;96448.34;5005132;28;19975;-64
2022/08/10 02:07:35;;;;;;;;;;;;;;;17.49;31.40;96453.34;5008260;28;20092;-64
2022/08/10 02:10:02;;;;;;;;;;;;;;;17.50;31.24;96453.13;5006722;28;20041;-64
2022/08/10 02:12:29;;;;;;;;;;;;;;;17.46;31.13;96451.03;5005376;28;20012;-65
2022/08/10 02:14:54;;;;;;;;;;;;;;;17.41;31.44;96446.28;4986564;28;20304;-64
2022/08/10 02:17:21;;;;;;;;;;;;;;;17.34;31.64;96458.88;5005976;28;20927;-65
2022/08/10 02:19:46;;;;;;;;;;;;;;;17.35;31.21;96449.78;4985442;28;19966;-64
2022/08/10 02:22:12;;;;;;;;;;;;;;;17.32;31.35;96448.31;4990530;28;19996;-64
2022/08/10 02:24:37;;;;;;;;;;;;;;;17.28;31.40;96449.75;4990399;28;19980;-64
2022/08/10 02:27:04;;;;;;;;;;;;;;;17.22;31.79;96450.53;5003426;28;19986;-64
2022/08/10 02:29:29;;;;;;;;;;;;;;;17.28;31.31;96449.75;5006332;28;20039;-64
2022/08/10 02:31:55;;;;;;;;;;;;;;;17.18;31.56;96451.97;5000311;28;19982;-64
2022/08/10 02:34:20;;;;;;;;;;;;;;;17.18;31.60;96460.88;5004561;28;20457;-65
2022/08/10 02:36:49;;;;;;;;;;;;;;;17.08;31.92;96461.22;4996818;28;19972;-64
2022/08/10 02:39:14;;;;;;;;;;;;;;;17.05;31.67;96453.56;5016151;28;19989;-64
2022/08/10 02:41:41;;;;;;;;;;;;;;;17.06;31.89;96462.47;4987684;28;20362;-64
2022/08/10 02:44:09;;;;;;;;;;;;;;;17.06;31.72;96457.09;5005873;28;20452;-65
2022/08/10 02:46:35;;;;;;;;;;;;;;;16.92;32.09;96457.00;4994426;28;20284;-65
2022/08/10 02:49:01;;;;;;;;;;;;;;;16.90;32.47;96465.25;4988478;28;20350;-64
2022/08/10 02:51:45;;;;;;;;;;;;;;;17.00;32.13;96474.84;5013529;28;20059;-64
2022/08/10 02:54:13;;;;;;;;;;;;;;;16.99;32.02;96465.94;4994702;28;19993;-64
2022/08/10 02:56:40;;;;;;;;;;;;;;;16.92;32.00;96467.75;4997942;28;19991;-65
2022/08/10 02:59:07;;;;;;;;;;;;;;;16.98;31.95;96458.91;5010843;28;19997;-64
2022/08/10 03:01:33;;;;;;;;;;;;;;;16.95;31.58;96467.34;4994650;28;20381;-64
2022/08/10 03:04:00;;;;;;;;;;;;;;;16.94;32.06;96464.88;4997227;28;19969;-64
2022/08/10 03:06:29;;;;;;;;;;;;;;;16.95;32.03;96458.44;4995386;28;20084;-63
2022/08/10 03:08:54;;;;;;;;;;;;;;;16.83;32.48;96463.56;4995789;28;19966;-65
2022/08/10 03:11:24;;;;;;;;;;;;;;;16.87;32.30;96462.16;5008536;28;20004;-64
2022/08/10 03:13:50;;;;;;;;;;;;;;;16.83;32.09;96460.88;5006016;28;20013;-64
2022/08/10 03:16:15;;;;;;;;;;;;;;;16.75;32.22;96454.63;4990469;28;20009;-64
2022/08/10 03:18:40;;;;;;;;;;;;;;;16.76;32.29;96448.22;4998656;28;20512;-65
2022/08/10 03:21:05;;;;;;;;;;;;;;;16.71;32.59;96455.22;4992214;28;19986;-64
2022/08/10 03:23:31;;;;;;;;;;;;;;;16.74;32.40;96452.13;5016605;28;19990;-65
2022/08/10 03:25:56;;;;;;;;;;;;;;;16.75;32.18;96448.41;4998340;28;20568;-64
2022/08/10 03:28:22;;;;;;;;;;;;;;;16.79;31.88;96446.97;5010114;28;19984;-64
2022/08/10 03:30:47;;;;;;;;;;;;;;;16.77;32.02;96449.88;5008579;28;20088;-64
2022/08/10 03:33:12;;;;;;;;;;;;;;;16.73;32.10;96448.59;5016148;28;20107;-65
2022/08/10 03:35:37;;;;;;;;;;;;;;;16.75;31.94;96451.09;4989312;28;20017;-64
2022/08/10 03:38:03;;;;;;;;;;;;;;;16.68;32.35;96455.59;5011575;28;19989;-65
2022/08/10 03:40:29;;;;;;;;;;;;;;;16.66;32.39;96453.13;4997491;28;20422;-65
2022/08/10 03:42:54;;;;;;;;;;;;;;;16.62;32.48;96451.84;4991624;28;20006;-64
2022/08/10 03:45:19;;;;;;;;;;;;;;;16.59;32.49;96454.94;4988143;28;19974;-64
2022/08/10 03:47:44;;;;;;;;;;;;;;;16.57;32.25;96448.91;5003709;28;19967;-64
2022/08/10 03:50:10;;;;;;;;;;;;;;;16.47;32.82;96446.56;4986588;28;20400;-64
2022/08/10 03:52:35;;;;;;;;;;;;;;;16.49;32.64;96457.97;4988550;28;20017;-64
2022/08/10 03:55:00;;;;;;;;;;;;;;;16.43;32.83;96448.00;4996673;28;19994;-64
2022/08/10 03:57:28;;;;;;;;;;;;;;;16.30;32.73;96448.69;5002276;28;20025;-65
2022/08/10 03:59:54;;;;;;;;;;;;;;;16.43;32.41;96454.22;4988712;28;19969;-65
2022/08/10 04:02:19;;;;;;;;;;;;;;;16.45;32.68;96448.66;5008085;28;20018;-64
2022/08/10 04:04:44;;;;;;;;;;;;;;;16.49;32.49;96453.41;4995023;28;19964;-64
2022/08/10 04:07:09;;;;;;;;;;;;;;;16.45;32.88;96448.66;4988618;28;20001;-65
2022/08/10 04:09:35;;;;;;;;;;;;;;;16.41;32.83;96448.19;4986860;28;19990;-65
2022/08/10 04:12:01;;;;;;;;;;;;;;;16.44;32.62;96452.34;4986074;28;20037;-65
2022/08/10 04:14:26;;;;;;;;;;;;;;;16.51;32.52;96446.00;4986308;28;20160;-65
2022/08/10 04:16:51;;;;;;;;;;;;;;;16.65;31.96;96451.44;4990809;28;19977;-65
2022/08/10 04:19:17;;;;;;;;;;;;;;;16.63;32.03;96448.94;4985564;28;20004;-65
2022/08/10 04:21:42;;;;;;;;;;;;;;;16.60;32.44;96451.22;5001641;28;20494;-65
2022/08/10 04:24:09;;;;;;;;;;;;;;;16.65;32.19;96456.81;4987949;28;19970;-65
2022/08/10 04:26:34;;;;;;;;;;;;;;;16.66;32.15;96453.13;4994923;28;20076;-65
2022/08/10 04:29:00;;;;;;;;;;;;;;;16.72;32.07;96457.69;4990567;28;20072;-65
2022/08/10 04:31:25;;;;;;;;;;;;;;;16.74;31.93;96458.34;5004855;28;20006;-65
2022/08/10 04:33:50;;;;;;;;;;;;;;;16.76;31.89;96456.28;4990196;28;20308;-65
2022/08/10 04:36:16;;;;;;;;;;;;;;;16.75;32.16;96459.16;4987255;28;20044;-65
2022/08/10 04:38:41;;;;;;;;;;;;;;;16.80;31.99;96453.19;4986921;28;19998;-65
2022/08/10 04:41:07;;;;;;;;;;;;;;;16.83;31.85;96458.19;4986474;28;20486;-65
2022/08/10 04:43:32;;;;;;;;;;;;;;;16.85;32.03;96459.66;4993367;28;20011;-65
2022/08/10 04:45:58;;;;;;;;;;;;;;;16.90;32.01;96462.56;5005776;28;20001;-65
2022/08/10 04:48:23;;;;;;;;;;;;;;;16.99;31.86;96463.25;5006125;28;20617;-65
2022/08/10 04:50:49;;;;;;;;;;;;;;;16.96;32.13;96454.75;5008766;28;20000;-65
2022/08/10 04:53:14;;;;;;;;;;;;;;;17.07;31.66;96459.56;5014021;28;20072;-65
2022/08/10 04:55:39;;;;;;;;;;;;;;;16.85;32.47;96461.50;5006667;28;19981;-64
2022/08/10 04:58:04;;;;;;;;;;;;;;;17.01;31.86;96458.50;5005842;28;20105;-66
2022/08/10 05:00:30;;;;;;;;;;;;;;;17.16;31.81;96454.88;4988282;28;19984;-65
2022/08/10 05:02:55;;;;;;;;;;;;;;;17.30;31.63;96463.00;5006313;28;19993;-65
2022/08/10 05:05:20;;;;;;;;;;;;;;;17.39;31.46;96461.78;5003727;28;20099;-64
2022/08/10 05:07:45;;;;;;;;;;;;;;;17.45;31.32;96457.47;5005967;28;19976;-65
2022/08/10 05:10:10;;;;;;;;;;;;;;;17.53;31.06;96454.59;5004438;28;20000;-65
2022/08/10 05:12:36;;;;;;;;;;;;;;;17.64;31.06;96458.59;5006017;28;20369;-65
2022/08/10 05:15:02;;;;;;;;;;;;;;;17.66;30.88;96460.03;5005627;28;19994;-65
2022/08/10 05:17:27;;;;;;;;;;;;;;;17.65;31.14;96460.22;5003834;28;19993;-65
2022/08/10 05:19:52;;;;;;;;;;;;;;;17.79;31.07;96463.78;5005457;28;20819;-64
2022/08/10 05:22:17;;;;;;;;;;;;;;;17.90;31.12;96459.69;5006788;28;20047;-64
2022/08/10 05:24:43;;;;;;;;;;;;;;;17.99;30.81;96457.63;5007039;28;19969;-65
2022/08/10 05:27:08;;;;;;;;;;;;;;;18.08;30.52;96463.66;4988362;28;20104;-65
2022/08/10 05:29:33;;;;;;;;;;;;;;;18.10;30.80;96466.97;5011494;28;20084;-65
2022/08/10 05:31:59;;;;;;;;;;;;;;;18.23;30.76;96466.16;4987904;28;20040;-65
2022/08/10 05:34:27;;;;;;;;;;;;;;;18.46;30.32;96459.53;5008443;28;20055;-65
2022/08/10 05:36:52;;;;;;;;;;;;;;;18.54;30.32;96465.53;5003515;28;20443;-65
2022/08/10 05:39:18;;;;;;;;;;;;;;;18.66;29.93;96463.03;5006185;28;20123;-64
2022/08/10 05:41:43;;;;;;;;;;;;;;;18.77;29.83;96472.34;5008048;28;20032;-64
2022/08/10 05:44:08;;;;;;;;;;;;;;;18.72;29.84;96463.25;4988466;28;20000;-64
2022/08/10 05:46:34;;;;;;;;;;;;;;;19.01;29.18;96471.91;4990718;28;20089;-65
2022/08/10 05:48:59;;;;;;;;;;;;;;;19.11;29.18;96472.31;4993919;28;20485;-65
2022/08/10 05:51:24;;;;;;;;;;;;;;;19.31;28.89;96469.56;4987973;28;20017;-65
2022/08/10 05:53:49;;;;;;;;;;;;;;;19.28;29.10;96472.66;4983468;28;20262;-65
2022/08/10 05:56:15;;;;;;;;;;;;;;;19.45;28.83;96466.81;5007156;28;19963;-65
2022/08/10 05:58:40;;;;;;;;;;;;;;;19.63;28.64;96468.78;4987556;28;20040;-65
2022/08/10 06:01:06;;;;;;;;;;;;;;;19.80;28.19;96474.53;4983618;28;20379;-65
2022/08/10 06:03:49;;;;;;;;;;;;;;;19.88;28.31;96476.13;4989760;28;20092;-65
2022/08/10 06:06:14;;;;;;;;;;;;;;;20.06;28.06;96480.81;4984941;28;19994;-65
2022/08/10 06:08:40;;;;;;;;;;;;;;;20.12;27.88;96481.81;4986232;28;20406;-65
2022/08/10 06:11:05;;;;;;;;;;;;;;;20.22;27.89;96478.63;4984954;28;19993;-65
2022/08/10 06:16:17;;;;;;;;;;;;;;;20.45;27.90;96478.06;4985199;28;20081;-65
2022/08/10 06:18:42;;;;;;;;;;;;;;;20.34;27.54;96471.50;5001724;28;20532;-65
2022/08/10 06:21:08;;;;;;;;;;;;;;;20.66;27.09;96480.63;4985660;28;20436;-65
2022/08/10 06:23:33;;;;;;;;;;;;;;;20.64;27.40;96478.13;4989862;28;19989;-65
2022/08/10 06:25:58;;;;;;;;;;;;;;;20.88;26.95;96475.63;4984429;28;19986;-65
2022/08/10 06:28:24;;;;;;;;;;;;;;;20.96;26.63;96474.47;4992882;28;19963;-65
2022/08/10 06:30:50;;;;;;;;;;;;;;;21.10;26.09;96475.16;4990270;28;20395;-65
2022/08/10 06:33:15;;;;;;;;;;;;;;;20.90;26.91;96476.19;4989550;28;19972;-65
2022/08/10 06:35:40;;;;;;;;;;;;;;;21.16;26.47;96473.44;4993037;28;19989;-65
2022/08/10 06:38:05;;;;;;;;;;;;;;;21.25;26.37;96480.22;4992842;28;20223;-65
2022/08/10 06:40:42;;;;;;;;;;;;;;;21.48;25.99;96476.84;5009028;28;19973;-65
2022/08/10 06:43:08;;;;;;;;;;;;;;;21.42;25.74;96476.94;5000255;28;20465;-65
2022/08/10 06:45:44;;;;;;;;;;;;;;;21.65;26.13;96470.78;4992082;28;20001;-65
2022/08/10 06:48:12;;;;;;;;;;;;;;;21.87;25.77;96470.28;4974237;28;19977;-65
2022/08/10 06:50:42;;;;;;;;;;;;;;;21.94;25.44;96476.47;4968176;28;20471;-65
2022/08/10 06:53:17;;;;;;;;;;;;;;;21.99;25.28;96478.50;4978034;28;19971;-65
2022/08/10 06:55:52;;;;;;;;;;;;;;;22.20;25.40;96476.31;4988443;28;19959;-65
2022/08/10 06:58:19;;;;;;;;;;;;;;;22.19;25.21;96480.88;4968645;28;20258;-65
2022/08/10 07:00:44;;;;;;;;;;;;;;;22.31;24.72;96475.50;4969098;28;20067;-65
2022/08/10 07:03:10;;;;;;;;;;;;;;;22.53;24.57;96488.53;4968763;28;20060;-65
2022/08/10 07:05:37;;;;;;;;;;;;;;;22.63;24.41;96491.50;4972388;28;19984;-65
2022/08/10 07:08:02;;;;;;;;;;;;;;;22.60;24.20;96496.56;4971808;28;20499;-65
2022/08/10 07:10:27;;;;;;;;;;;;;;;22.92;24.06;96498.94;4974651;28;19983;-65
2022/08/10 07:12:56;;;;;;;;;;;;;;;22.92;24.10;96496.22;4976057;28;19966;-75
2022/08/10 07:15:22;;;;;;;;;;;;;;;22.72;24.15;96499.28;4971371;28;19995;-76
2022/08/10 07:17:47;;;;;;;;;;;;;;;22.96;23.88;96494.69;4983212;28;19992;-75
2022/08/10 07:20:17;;;;;;;;;;;;;;;23.03;23.79;96489.97;4975732;28;20011;-75
2022/08/10 07:22:42;;;;;;;;;;;;;;;22.86;23.79;96495.28;4967740;28;20414;-73
2022/08/10 07:25:08;;;;;;;;;;;;;;;23.39;22.92;96495.34;4969959;28;20375;-76
2022/08/10 07:27:33;;;;;;;;;;;;;;;23.64;23.03;96499.66;4972786;28;20620;-74
2022/08/10 07:29:58;;;;;;;;;;;;;;;23.80;23.14;96500.78;4972437;28;20030;-74
2022/08/10 07:32:23;;;;;;;;;;;;;;;23.92;23.23;96503.47;4969490;28;20198;-75
2022/08/10 07:34:50;;;;;;;;;;;;;;;23.80;22.37;96497.28;4973558;28;20460;-75
2022/08/10 07:37:16;;;;;;;;;;;;;;;23.65;22.92;96501.31;4990824;28;19963;-75
2022/08/10 07:39:42;;;;;;;;;;;;;;;24.17;22.61;96506.91;4989622;28;19966;-74
2022/08/10 07:42:07;;;;;;;;;;;;;;;24.34;22.35;96511.56;4961026;28;19980;-74
2022/08/10 07:44:32;;;;;;;;;;;;;;;24.64;22.21;96505.81;4976042;28;20034;-76
2022/08/10 07:46:59;;;;;;;;;;;;;;;24.71;21.90;96506.47;5000636;28;19984;-75
2022/08/10 07:49:25;;;;;;;;;;;;;;;24.62;21.66;96507.97;5004852;28;20058;-75
2022/08/10 07:51:50;;;;;;;;;;;;;;;24.51;22.05;96508.88;4988284;28;20159;-74
2022/08/10 07:54:16;;;;;;;;;;;;;;;24.15;22.40;96509.88;4986541;28;20207;-66
2022/08/10 07:56:42;;;;;;;;;;;;;;;24.62;21.73;96512.56;4986212;28;19958;-68
2022/08/10 07:59:13;;;;;;;;;;;;;;;25.16;20.60;96506.63;4986072;28;20394;-67
2022/08/10 08:01:43;;;;;;;;;;;;;;;25.11;20.90;96511.97;5007189;28;19981;-67
2022/08/10 08:04:08;;;;;;;;;;;;;;;25.16;20.93;96517.50;5009897;28;19964;-67
2022/08/10 08:06:34;;;;;;;;;;;;;;;25.33;20.95;96517.44;4989996;28;19974;-67
2022/08/10 08:08:59;;;;;;;;;;;;;;;25.11;21.18;96522.06;5002040;28;19960;-67
2022/08/10 08:11:25;;;;;;;;;;;;;;;25.42;20.81;96517.84;4993881;28;20141;-67
2022/08/10 08:13:50;;;;;;;;;;;;;;;25.60;20.76;96510.47;4986055;28;19990;-66
2022/08/10 08:16:15;;;;;;;;;;;;;;;25.79;20.88;96521.00;5004277;28;20133;-67
2022/08/10 08:18:40;;;;;;;;;;;;;;;25.29;20.87;96518.22;4992285;28;19984;-67
2022/08/10 08:21:06;;;;;;;;;;;;;;;25.88;20.33;96526.84;4989831;28;19962;-67
2022/08/10 08:23:31;;;;;;;;;;;;;;;25.57;20.52;96530.88;4988393;28;19968;-67
2022/08/10 08:25:56;;;;;;;;;;;;;;;25.97;20.52;96528.84;4985266;28;19972;-67
2022/08/10 08:28:21;;;;;;;;;;;;;;;26.36;19.45;96530.66;4994889;28;20330;-66
2022/08/10 08:30:47;;;;;;;;;;;;;;;26.46;19.83;96527.19;5004592;28;19982;-67
2022/08/10 08:33:14;;;;;;;;;;;;;;;26.56;19.40;96526.47;4992452;28;19976;-66
2022/08/10 08:35:39;;;;;;;;;;;;;;;26.59;18.77;96528.69;4965987;28;19985;-67
2022/08/10 08:38:04;;;;;;;;;;;;;;;26.47;18.97;96528.00;4971082;28;19999;-67
2022/08/10 08:40:32;;;;;;;;;;;;;;;26.75;18.50;96528.81;4984159;28;19951;-67
2022/08/10 08:43:04;;;;;;;;;;;;;;;26.59;18.94;96528.69;4997481;28;20592;-67
2022/08/10 08:45:33;;;;;;;;;;;;;;;26.78;19.29;96519.28;4968622;28;19953;-66
2022/08/10 08:48:10;;;;;;;;;;;;;;;26.94;18.35;96529.22;4967023;28;19952;-67
2022/08/10 08:50:41;;;;;;;;;;;;;;;27.03;17.85;96531.44;4969062;28;19975;-68
2022/08/10 08:53:16;;;;;;;;;;;;;;;27.14;17.82;96525.00;4971118;28;20032;-68
2022/08/10 08:55:42;;;;;;;;;;;;;;;27.20;17.93;96513.03;4969396;28;20058;-67
2022/08/10 08:58:26;;;;;;;;;;;;;;;27.37;17.90;96522.94;4967901;28;20518;-67
2022/08/10 09:01:27;;;;;;;;;;;;;;;27.59;16.28;96517.28;4969528;28;19956;-67
2022/08/10 09:03:52;;;;;;;;;;;;;;;27.77;16.67;96515.22;4959545;28;20418;-67
2022/08/10 09:06:36;;;;;;;;;;;;;;;27.19;17.23;96519.56;4969142;28;20001;-68
2022/08/10 09:09:20;;;;;;;;;;;;;;;27.44;17.27;96515.31;4965914;28;20295;-68
2022/08/10 09:12:04;;;;;;;;;;;;;;;27.88;17.21;96513.31;4970924;28;19980;-67
2022/08/10 09:14:29;;;;;;;;;;;;;;;27.69;17.39;96513.81;4965680;28;20414;-67
2022/08/10 09:17:09;;;;;;;;;;;;;;;27.72;18.03;96510.53;4965375;28;21087;-67
2022/08/10 09:19:40;;;;;;;;;;;;;;;27.88;17.50;96502.38;4967061;28;20546;-67
2022/08/10 09:22:12;;;;;;;;;;;;;;;27.99;16.75;96500.47;4964544;28;19959;-67
2022/08/10 09:24:37;;;;;;;;;;;;;;;27.93;16.16;96507.84;4982563;28;19947;-67
2022/08/10 09:27:14;;;;;;;;;;;;;;;28.22;16.06;96504.66;4969911;28;19965;-67
2022/08/10 09:29:41;;;;;;;;;;;;;;;28.06;15.58;96503.78;4987918;28;19957;-66
2022/08/10 09:32:08;;;;;;;;;;;;;;;27.88;16.46;96499.63;4969640;28;19966;-67
2022/08/10 09:34:33;;;;;;;;;;;;;;;27.54;17.01;96489.09;4975382;28;19969;-67
2022/08/10 09:37:00;;;;;;;;;;;;;;;27.95;16.70;96492.00;4967683;28;20451;-68
2022/08/10 09:39:55;;;;;;;;;;;;;;;28.56;15.76;96497.00;4967187;28;20164;-67
2022/08/10 09:42:38;;;;;;;;;;;;;;;28.42;15.24;96495.63;4969806;28;20372;-74
2022/08/10 09:45:08;;;;;;;;;;;;;;;28.58;15.76;96500.28;4967987;28;19953;-71
2022/08/10 09:47:40;;;;;;;;;;;;;;;28.49;15.12;96494.53;4974646;28;20069;-74
2022/08/10 09:50:16;;;;;;;;;;;;;;;28.49;16.06;96491.81;4969657;28;20026;-74
2022/08/10 09:53:00;;;;;;;;;;;;;;;28.70;15.43;96497.28;4964176;28;19960;-75
2022/08/10 09:55:31;;;;;;;;;;;;;;;28.76;16.06;96497.00;4965810;28;20372;-73
2022/08/10 09:58:05;;;;;;;;;;;;;;;29.14;14.77;96488.47;4964070;28;20165;-74
2022/08/10 10:00:34;;;;;;;;;;;;;;;29.13;15.31;96486.00;4978230;28;20577;-75
2022/08/10 10:03:11;;;;;;;;;;;;;;;29.12;15.37;96476.94;4973199;28;19963;-73
2022/08/10 10:05:55;;;;;;;;;;;;;;;29.02;14.69;96480.53;4965462;28;21205;-75
2022/08/10 10:08:20;;;;;;;;;;;;;;;28.95;15.69;96482.72;4965046;28;20041;-76
2022/08/10 10:10:52;;;;;;;;;;;;;;;29.01;15.65;96481.63;4965970;28;20056;-76
2022/08/10 10:13:19;;;;;;;;;;;;;;;29.83;14.58;96473.41;4966765;28;20359;-74
2022/08/10 10:15:49;;;;;;;;;;;;;;;29.83;14.21;96480.81;4977979;28;19930;-75
2022/08/10 10:18:18;;;;;;;;;;;;;;;29.95;14.32;96475.81;4974355;28;19965;-76
2022/08/10 10:20:52;;;;;;;;;;;;;;;30.13;14.27;96478.97;4965743;28;19948;-73
2022/08/10 10:23:36;;;;;;;;;;;;;;;29.74;15.23;96466.88;4969871;28;19948;-74
2022/08/10 10:26:10;;;;;;;;;;;;;;;30.05;14.13;96472.16;4970427;28;20321;-74
2022/08/10 10:28:59;;;;;;;;;;;;;;;29.34;15.09;96462.09;4988772;28;20028;-73
2022/08/10 10:31:29;;;;;;;;;;;;;;;29.98;14.98;96463.44;4978490;28;20466;-76
2022/08/10 10:33:57;;;;;;;;;;;;;;;29.27;15.41;96459.63;4976631;28;19961;-76
2022/08/10 10:36:23;;;;;;;;;;;;;;;29.38;15.10;96465.91;4965348;28;20127;-75
2022/08/10 10:38:48;;;;;;;;;;;;;;;29.78;14.94;96454.22;4966142;28;19983;-73
2022/08/10 10:41:16;;;;;;;;;;;;;;;29.44;14.34;96453.00;4968519;28;20543;-69
2022/08/10 10:43:56;;;;;;;;;;;;;;;29.56;15.90;96448.00;4990472;28;20348;-75
2022/08/10 10:47:00;;;;;;;;;;;;;;;30.17;14.42;96444.38;4988174;28;20021;-73
2022/08/10 10:49:37;;;;;;;;;;;;;;;30.73;13.74;96449.69;4978731;28;19934;-76
2022/08/10 10:52:02;;;;;;;;;;;;;;;30.59;13.90;96445.66;4960972;28;21068;-73
2022/08/10 10:54:42;;;;;;;;;;;;;;;30.58;15.05;96429.47;5000739;28;19953;-75
2022/08/10 10:57:27;;;;;;;;;;;;;;;29.78;15.06;96438.56;4992875;28;19930;-74
2022/08/10 10:59:55;;;;;;;;;;;;;;;30.64;13.71;96436.56;4987418;28;20390;-74
2022/08/10 11:02:20;;;;;;;;;;;;;;;30.80;14.22;96423.53;4994962;28;20019;-76
2022/08/10 11:04:58;;;;;;;;;;;;;;;30.75;14.62;96429.06;5009894;28;20031;-75
2022/08/10 11:07:27;;;;;;;;;;;;;;;30.75;13.37;96437.28;5007610;28;20003;-75
2022/08/10 11:09:57;;;;;;;;;;;;;;;30.77;13.06;96434.25;4985737;28;20439;-72
2022/08/10 11:12:22;;;;;;;;;;;;;;;30.73;14.39;96423.06;5018779;28;19928;-74
2022/08/10 11:14:51;;;;;;;;;;;;;;;31.22;13.85;96440.38;5010140;28;19955;-73
2022/08/10 11:17:18;;;;;;;;;;;;;;;31.51;13.22;96424.91;5001634;28;19913;-74
2022/08/10 11:19:46;;;;;;;;;;;;;;;31.32;13.47;96433.13;4997155;28;20151;-74
2022/08/10 11:22:17;;;;;;;;;;;;;;;31.63;13.90;96407.16;5020004;28;19917;-76
2022/08/10 11:24:45;;;;;;;;;;;;;;;31.69;12.96;96415.03;4997795;28;20426;-74
2022/08/10 11:27:29;;;;;;;;;;;;;;;32.01;13.25;96423.63;4995026;28;19970;-73
2022/08/10 11:29:56;;;;;;;;;;;;;;;31.78;12.84;96417.91;5011352;28;20366;-74
2022/08/10 11:32:29;;;;;;;;;;;;;;;31.71;13.49;96403.75;4978041;28;20213;-74
2022/08/10 11:35:00;;;;;;;;;;;;;;;31.29;14.89;96415.28;4999001;28;19917;-74
2022/08/10 11:37:25;;;;;;;;;;;;;;;32.06;13.50;96420.81;4994952;28;19961;-74
2022/08/10 11:39:53;;;;;;;;;;;;;;;32.37;14.15;96417.59;4997232;28;20491;-76
2022/08/10 11:42:30;;;;;;;;;;;;;;;32.26;13.90;96418.88;5011077;28;20309;-73
2022/08/10 11:45:07;;;;;;;;;;;;;;;31.99;14.33;96409.38;4996150;28;19960;-73
2022/08/10 11:47:35;;;;;;;;;;;;;;;32.59;11.99;96402.34;4998113;28;20491;-76
2022/08/10 11:50:15;;;;;;;;;;;;;;;32.56;12.95;96402.13;5015242;28;19921;-73
2022/08/10 11:52:45;;;;;;;;;;;;;;;32.69;13.52;96393.06;4994251;28;20311;-75
2022/08/10 11:55:12;;;;;;;;;;;;;;;32.70;13.00;96397.44;4993027;28;19972;-74
2022/08/10 11:57:37;;;;;;;;;;;;;;;32.33;13.91;96411.06;4997527;28;19921;-74
2022/08/10 12:00:03;;;;;;;;;;;;;;;32.97;12.73;96406.06;4998447;28;20013;-76
2022/08/10 12:02:32;;;;;;;;;;;;;;;32.57;13.65;96407.34;5002635;28;19921;-76
2022/08/10 12:05:03;;;;;;;;;;;;;;;32.68;12.36;96398.88;5007130;28;19924;-74
2022/08/10 12:07:28;;;;;;;;;;;;;;;33.09;12.42;96402.78;5008143;28;20421;-73
2022/08/10 12:09:53;;;;;;;;;;;;;;;32.60;12.72;96389.38;4995151;28;19924;-75
2022/08/10 12:12:19;;;;;;;;;;;;;;;32.26;12.22;96398.78;5010750;28;19925;-75
2022/08/10 12:15:05;;;;;;;;;;;;;;;32.80;11.70;96396.47;4994559;28;19925;-74
2022/08/10 12:17:38;;;;;;;;;;;;;;;32.60;12.39;96392.16;4993565;28;19967;-75
2022/08/10 12:20:07;;;;;;;;;;;;;;;32.93;11.98;96391.25;5010834;28;19936;-75
2022/08/10 12:22:35;;;;;;;;;;;;;;;33.17;12.12;96385.53;4992587;28;19928;-76
2022/08/10 12:25:01;;;;;;;;;;;;;;;32.96;12.54;96396.16;4987978;28;19936;-74
2022/08/10 12:27:31;;;;;;;;;;;;;;;33.26;12.21;96380.09;5008424;28;19921;-74
2022/08/10 12:30:06;;;;;;;;;;;;;;;33.00;12.14;96386.19;4989923;28;20266;-74
2022/08/10 12:32:34;;;;;;;;;;;;;;;33.70;11.36;96371.44;4990267;28;20471;-74
2022/08/10 12:35:00;;;;;;;;;;;;;;;33.69;12.65;96362.34;5009581;28;19930;-74
2022/08/10 12:37:29;;;;;;;;;;;;;;;33.71;11.68;96362.03;5008945;28;20366;-74
2022/08/10 12:39:54;;;;;;;;;;;;;;;33.68;12.08;96362.66;4986553;28;19918;-74
2022/08/10 12:42:21;;;;;;;;;;;;;;;33.38;11.76;96354.75;4991984;28;19925;-74
2022/08/10 12:44:46;;;;;;;;;;;;;;;33.58;11.48;96359.00;4996293;28;20392;-74
2022/08/10 12:47:24;;;;;;;;;;;;;;;33.62;11.03;96356.44;5019483;28;19972;-74
2022/08/10 12:49:53;;;;;;;;;;;;;;;33.64;11.84;96352.25;4996698;28;19929;-75
2022/08/10 12:52:23;;;;;;;;;;;;;;;33.38;11.89;96343.72;5009438;28;19952;-75
2022/08/10 12:54:49;;;;;;;;;;;;;;;33.25;11.83;96350.91;4988861;28;20404;-75
2022/08/10 12:57:18;;;;;;;;;;;;;;;33.62;12.32;96342.66;4987374;28;19913;-75
2022/08/10 12:59:44;;;;;;;;;;;;;;;33.93;12.26;96336.41;4989271;28;19944;-75